NCAR-RAP Real-Time Weather Data

Output produced by METARs form (12 August 2020  18:03 UTC)
found at http://weather.rap.ucar.edu/surface/
 
KDSM 121754Z 18009KT 10SM SCT028 SCT035 OVC250 29/22 A3001 RMK AO2 SLP155 T02890222 10289 20206 58002
KDSM 121654Z 15010KT 10SM SCT018 SCT024 OVC250 28/22 A3002 RMK AO2 SLP156 T02830222
KDSM 121645Z 18012G18KT 10SM SCT018 SCT024 BKN250 28/22 A3001 RMK AO2 T02830222
KDSM 121554Z 18011KT 10SM BKN016 BKN250 27/22 A3002 RMK AO2 SLP158 T02670217
KDSM 121552Z 17010KT 10SM BKN016 BKN250 27/22 A3002 RMK AO2
KDSM 121454Z 14008KT 10SM SCT200 BKN250 25/21 A3001 RMK AO2 SLP156 T02500211 58003
KDSM 121354Z 15009KT 10SM FEW020 FEW160 SCT250 23/20 A3003 RMK AO2 SLP161 T02330200
KDSM 121254Z 14010KT 10SM FEW020 FEW160 FEW250 21/18 A3003 RMK AO2 SLP162 T02110183
KDSM 121154Z 12008KT 10SM FEW020 FEW250 21/18 A3002 RMK AO2 SLP159 T02060183 10211 20200 53001
KDSM 121118Z 12007KT 10SM SCT020 BKN250 21/18 A3001 RMK AO2 SCT020 V BKN T02060183
KDSM 121054Z 12007KT 10SM OVC020 21/18 A3001 RMK AO2 SLP156 BINOVC T02060183
KDSM 120954Z 13006KT 10SM BKN020 20/18 A3002 RMK AO2 SLP159 T02000183
KDSM 120936Z 12007KT 10SM SCT020 21/18 A3002 RMK AO2 SCT V BKN T02060183
KDSM 120854Z 12005KT 10SM BKN023 21/18 A3002 RMK AO2 SLP158 T02060178 50006
KDSM 120754Z 10005KT 10SM OVC021 21/18 A3002 RMK AO2 SLP159 BINOVC T02110178
KDSM 120712Z 14003KT 10SM BKN023 20/17 A3002 RMK AO2 T02000172
KDSM 120654Z 12004KT 10SM CLR 21/17 A3001 RMK AO2 SLP155 T02060172
KDSM 120554Z 10005KT 10SM CLR 21/17 A3000 RMK AO2 SLP152 T02110167 10267 20211 402830144 50006
KDSM 120454Z 12006KT 10SM CLR 22/16 A3000 RMK AO2 SLP153 T02170161
KDSM 120354Z 12007KT 10SM CLR 22/16 A2999 RMK AO2 SLP148 T02220161
KDSM 120254Z 11007KT 10SM FEW035 FEW150 23/16 A2998 RMK AO2 SLP147 T02330161 53002
KDSM 120154Z 10007KT 10SM FEW035 FEW200 24/16 A2998 RMK AO2 SLP144 T02390161
KDSM 120054Z 11006KT 10SM FEW250 25/16 A2998 RMK AO2 SLP145 T02500156
KDSM 112354Z 12009KT 10SM FEW250 27/16 A2998 RMK AO2 SLP146 T02670161 10283 20261 58004
KDSM 112254Z 11007KT 080V140 10SM FEW250 27/17 A2999 RMK AO2 SLP150 T02720167
KDSM 112154Z 14009G14KT 10SM FEW250 28/16 A2998 RMK AO2 SLP147 T02780156
KDSM 112054Z 12006KT 10SM SCT250 28/15 A2999 RMK AO2 SLP148 T02830150 58009
KDSM 111954Z 11005G14KT 10SM SCT250 27/15 A3000 RMK AO2 SLP152 T02720150
KDSM 111854Z VRB05KT 10SM FEW250 27/14 A3001 RMK AO2 SLP156 T02670139
KDSM 111754Z 14006KT 10SM FEW250 26/14 A3002 RMK AO2 SLP158 T02610144 10261 20156 58003
KDSM 111654Z 15006KT 10SM FEW250 25/13 A3002 RMK AO2 SLP161 T02500133
KDSM 111554Z 15007KT 10SM FEW250 24/14 A3002 RMK AO2 SLP160 T02390144
KDSM 111454Z 15007KT 10SM FEW080 SCT250 22/14 A3003 RMK AO2 SLP162 T02220139 50003
KDSM 111354Z 14005KT 10SM FEW220 FEW250 21/13 A3003 RMK AO2 SLP163 T02110133
KDSM 111254Z 02003KT 10SM FEW220 FEW250 18/14 A3002 RMK AO2 SLP161 T01830144
KDSM 111154Z 04003KT 10SM FEW220 FEW250 16/14 A3002 RMK AO2 SLP159 70061 T01610139 10189 20144 51009
KDSM 111054Z 00000KT 10SM FEW110 FEW250 16/13 A3002 RMK AO2 SLP159 T01560133
KDSM 110954Z 00000KT 10SM FEW250 16/13 A3000 RMK AO2 SLP153 T01560133
KDSM 110854Z 00000KT 10SM FEW100 SCT250 17/14 A2999 RMK AO2 SLP149 T01670139 53004
KDSM 110754Z 00000KT 10SM FEW110 SCT250 17/14 A2998 RMK AO2 SLP146 T01720139
KDSM 110654Z 00000KT 10SM FEW110 FEW250 17/14 A2998 RMK AO2 SLP146 T01720139
KDSM 110554Z 04003KT 10SM FEW100 FEW250 18/13 A2998 RMK AO2 SLP147 T01830133 10256 20183 402780167 50009
KDSM 110454Z 03004KT 10SM FEW200 19/14 A2998 RMK AO2 SLP149 T01940139
KDSM 110354Z 01005KT 10SM CLR 20/14 A2996 RMK AO2 SLP140 T02000139
KDSM 110254Z 35007KT 10SM CLR 21/15 A2995 RMK AO2 SLP134 T02110150 51005
KDSM 110154Z 35005KT 10SM FEW250 FEW300 22/16 A2995 RMK AO2 SLP134 T02220156
KDSM 110054Z 34007KT 10SM FEW150 FEW300 24/17 A2994 RMK AO2 SLP129 T02390172
KDSM 102354Z 33009KT 10SM FEW150 FEW300 26/17 A2993 RMK AO2 SLP128 60000 T02610172 10267 20194 51016
KDSM 102254Z 33009KT 10SM FEW140 SCT250 SCT300 26/17 A2992 RMK AO2 SLP124 T02610172
KDSM 102154Z 30010KT 10SM FEW150 BKN250 25/17 A2993 RMK AO2 SLP127 T02500172
KDSM 102054Z 21011G22KT 10SM FEW095 FEW150 SCT250 BKN300 24/17 A2988 RMK AO2 SLP112 ACC DSNT NW-N 60000 T02390172 55026
KDSM 101954Z 19010KT 10SM FEW095 SCT140 BKN220 BKN250 24/16 A2988 RMK AO2 SLP112 ACC DSNT S-NW T02390161
KDSM 101854Z 04017G25KT 10SM FEW055 SCT095 BKN130 BKN220 BKN250 21/16 A2989 RMK AO2 PK WND 04027/1836 RAE33 TSE33 SLP113 TS DSIPTD CB DSNT E MOV E TCU DSNT E-SE ACC DSNT N P0000 T02110156 $
KDSM 101833Z 04018G24KT 10SM FEW055 SCT095 BKN130 BKN250 20/16 A2991 RMK AO2 LTG DSNT NE RAE33 TSE33 PRESFR TS DSIPTD CB DSNT E AND S MOV E TCU DSNT E-SE ACC DSNT ALQDS P0000 T02000156 $